createdAt,value
2018-07-03T00:01:13.556Z,98619.66
2018-07-03T00:03:40.791Z,98617.37
2018-07-03T00:06:08.088Z,98617.30
2018-07-03T00:08:35.311Z,98612.90
2018-07-03T00:11:02.620Z,98618.12
2018-07-03T00:13:30.358Z,98615.89
2018-07-03T00:16:02.576Z,98614.42
2018-07-03T00:21:20.091Z,98613.01
2018-07-03T00:23:47.317Z,98615.23
2018-07-03T00:26:16.220Z,98616.90
2018-07-03T00:28:43.474Z,98618.17
2018-07-03T00:31:10.753Z,98615.38
2018-07-03T00:33:38.044Z,98615.59
2018-07-03T00:36:05.340Z,98619.24
2018-07-03T00:38:32.569Z,98618.58
2018-07-03T00:40:59.848Z,98617.50
2018-07-03T00:43:27.076Z,98624.73
2018-07-03T00:45:54.361Z,98617.62
2018-07-03T00:48:21.653Z,98620.97
2018-07-03T00:50:48.934Z,98610.41
2018-07-03T00:53:16.222Z,98611.22
2018-07-03T00:55:43.496Z,98607.63
2018-07-03T00:58:10.774Z,98619.75
2018-07-03T01:00:38.038Z,98618.70
2018-07-03T01:03:05.323Z,98612.41
2018-07-03T01:05:33.183Z,98618.40
2018-07-03T01:08:00.476Z,98616.76
2018-07-03T01:10:28.153Z,98618.81
2018-07-03T01:12:56.062Z,98612.86
2018-07-03T01:15:23.683Z,98609.90
2018-07-03T01:17:51.000Z,98614.20
2018-07-03T01:20:18.275Z,98615.11
2018-07-03T01:22:45.538Z,98613.75
2018-07-03T01:25:12.792Z,98610.06
2018-07-03T01:27:40.195Z,98611.73
2018-07-03T01:30:07.590Z,98615.47
2018-07-03T01:32:34.844Z,98616.63
2018-07-03T01:35:02.173Z,98611.53
2018-07-03T01:37:29.391Z,98615.13
2018-07-03T01:39:56.664Z,98614.45
2018-07-03T01:42:23.928Z,98612.41
2018-07-03T01:44:51.155Z,98609.59
2018-07-03T01:47:18.402Z,98614.98
2018-07-03T01:49:45.692Z,98606.81
2018-07-03T01:52:12.950Z,98609.80
2018-07-03T01:54:40.563Z,98613.22
2018-07-03T01:57:07.859Z,98611.78
2018-07-03T01:59:35.119Z,98611.41
2018-07-03T02:02:02.440Z,98612.59
2018-07-03T02:04:29.711Z,98602.65
2018-07-03T02:06:57.001Z,98600.63
2018-07-03T02:09:24.240Z,98594.11
2018-07-03T02:11:51.494Z,98596.67
2018-07-03T02:14:18.743Z,98600.30
2018-07-03T02:16:46.079Z,98597.44
2018-07-03T02:19:13.338Z,98605.51
2018-07-03T02:21:40.671Z,98603.78
2018-07-03T02:24:08.583Z,98604.19
2018-07-03T02:26:35.893Z,98607.14
2018-07-03T02:29:03.594Z,98612.89
2018-07-03T02:31:30.960Z,98616.02
2018-07-03T02:33:58.244Z,98612.16
2018-07-03T02:36:25.683Z,98616.64
2018-07-03T02:38:53.304Z,98613.60
2018-07-03T02:41:20.699Z,98610.33
2018-07-03T02:43:48.109Z,98616.69
2018-07-03T02:46:15.527Z,98626.59
2018-07-03T02:48:43.049Z,98621.48
2018-07-03T02:51:10.395Z,98622.78
2018-07-03T02:53:37.802Z,98623.42
2018-07-03T02:56:05.348Z,98627.58
2018-07-03T02:58:33.359Z,98626.81
2018-07-03T03:01:00.725Z,98621.90
2018-07-03T03:03:28.092Z,98632.23
2018-07-03T03:05:55.469Z,98635.66
2018-07-03T03:08:25.426Z,98627.81
2018-07-03T03:10:53.161Z,98628.55
2018-07-03T03:13:20.533Z,98623.95
2018-07-03T03:15:47.937Z,98633.52
2018-07-03T03:18:15.246Z,98632.20
2018-07-03T03:20:43.654Z,98632.13
2018-07-03T03:23:11.674Z,98637.31
2018-07-03T03:25:39.600Z,98627.78
2018-07-03T03:28:07.006Z,98630.82
2018-07-03T03:30:34.387Z,98629.54
2018-07-03T03:33:01.836Z,98623.11
2018-07-03T03:35:29.300Z,98623.72
2018-07-03T03:37:56.777Z,98630.41
2018-07-03T03:40:24.183Z,98624.69
2018-07-03T03:42:51.550Z,98622.80
2018-07-03T03:45:19.018Z,98622.16
2018-07-03T03:47:46.440Z,98612.93
2018-07-03T03:50:13.911Z,98613.63
2018-07-03T03:52:41.374Z,98610.76
2018-07-03T03:55:10.131Z,98610.02
2018-07-03T03:57:37.715Z,98604.06
2018-07-03T04:00:06.880Z,98602.44
2018-07-03T04:02:34.221Z,98604.45
2018-07-03T04:05:01.676Z,98605.61
2018-07-03T04:07:29.102Z,98608.60
2018-07-03T04:09:57.292Z,98606.14
2018-07-03T04:12:24.639Z,98613.77
2018-07-03T04:14:52.490Z,98610.80
2018-07-03T04:17:19.924Z,98617.44
2018-07-03T04:19:50.208Z,98620.97
2018-07-03T04:22:17.665Z,98617.53
2018-07-03T04:24:45.703Z,98614.61
2018-07-03T04:27:13.185Z,98615.14
2018-07-03T04:29:40.581Z,98621.66
2018-07-03T04:32:08.620Z,98618.88
2018-07-03T04:34:36.161Z,98624.67
2018-07-03T04:37:03.833Z,98618.64
2018-07-03T04:39:31.414Z,98620.69
2018-07-03T04:41:59.077Z,98622.13
2018-07-03T04:44:26.511Z,98629.35
2018-07-03T04:46:53.908Z,98624.30
2018-07-03T04:49:22.049Z,98630.20
2018-07-03T04:51:49.459Z,98628.02
2018-07-03T04:54:17.716Z,98626.89
2018-07-03T04:56:45.832Z,98638.88
2018-07-03T04:59:13.292Z,98637.44
2018-07-03T05:01:40.771Z,98638.05
2018-07-03T05:04:08.302Z,98641.55
2018-07-03T05:06:35.729Z,98639.31
2018-07-03T05:09:04.274Z,98641.23
2018-07-03T05:11:31.693Z,98636.87
2018-07-03T05:13:59.127Z,98642.58
2018-07-03T05:16:26.672Z,98642.48
2018-07-03T05:18:54.241Z,98645.46
2018-07-03T05:21:21.706Z,98650.83
2018-07-03T05:23:49.254Z,98644.54
2018-07-03T05:26:16.831Z,98648.25
2018-07-03T05:28:44.881Z,98647.52
2018-07-03T05:31:12.374Z,98652.38
2018-07-03T05:33:39.739Z,98652.00
2018-07-03T05:36:08.453Z,98658.13
2018-07-03T05:38:35.881Z,98652.83
2018-07-03T05:41:03.276Z,98656.88
2018-07-03T05:43:31.034Z,98668.85
2018-07-03T05:46:03.357Z,98660.09
2018-07-03T05:48:30.990Z,98655.91
2018-07-03T05:50:58.427Z,98659.16
2018-07-03T05:53:26.060Z,98663.35
2018-07-03T05:55:54.688Z,98666.53
2018-07-03T05:58:22.279Z,98671.02
2018-07-03T06:00:50.158Z,98669.64
2018-07-03T06:03:17.767Z,98676.60
2018-07-03T06:05:45.363Z,98670.77
2018-07-03T06:08:12.924Z,98674.08
2018-07-03T06:10:41.265Z,98667.63
2018-07-03T06:13:08.731Z,98672.91
2018-07-03T06:15:36.336Z,98674.85
2018-07-03T06:18:03.758Z,98668.29
2018-07-03T06:20:31.163Z,98666.88
2018-07-03T06:22:58.671Z,98676.02
2018-07-03T06:25:26.325Z,98673.41
2018-07-03T06:27:53.889Z,98672.30
2018-07-03T06:30:21.532Z,98669.18
2018-07-03T06:32:49.086Z,98671.23
2018-07-03T06:35:16.761Z,98677.17
2018-07-03T06:37:45.144Z,98673.52
2018-07-03T06:40:12.647Z,98678.43
2018-07-03T06:42:39.974Z,98671.59
2018-07-03T06:45:08.373Z,98678.55
2018-07-03T06:47:36.697Z,98669.65
2018-07-03T06:50:06.784Z,98664.06
2018-07-03T06:52:34.461Z,98673.00
2018-07-03T06:55:02.469Z,98666.45
2018-07-03T06:57:30.091Z,98665.29
2018-07-03T06:59:57.738Z,98662.31
2018-07-03T07:02:25.289Z,98659.11
2018-07-03T07:05:05.737Z,98660.95
2018-07-03T07:07:33.571Z,98660.82
2018-07-03T07:10:01.171Z,98661.39
2018-07-03T07:12:28.626Z,98664.69
2018-07-03T07:14:57.179Z,98659.07
2018-07-03T07:17:27.692Z,98656.62
2018-07-03T07:19:55.473Z,98658.25
2018-07-03T07:22:22.804Z,98657.40
2018-07-03T07:24:50.312Z,98658.69
2018-07-03T07:27:17.809Z,98650.61
2018-07-03T07:29:45.802Z,98652.66
2018-07-03T07:32:14.382Z,98640.52
2018-07-03T07:34:41.751Z,98647.65
2018-07-03T07:37:16.152Z,98645.93
2018-07-03T07:39:44.034Z,98652.26
2018-07-03T07:42:11.407Z,98645.49
2018-07-03T07:44:38.798Z,98645.23
2018-07-03T07:47:06.178Z,98648.30
2018-07-03T07:49:36.548Z,98648.08
2018-07-03T07:52:11.966Z,98644.23
2018-07-03T07:54:45.269Z,98648.08
2018-07-03T07:57:13.604Z,98652.41
2018-07-03T07:59:42.107Z,98641.77
2018-07-03T08:02:32.296Z,98648.81
2018-07-03T08:05:00.753Z,98653.47
2018-07-03T08:07:28.315Z,98649.07
2018-07-03T08:09:56.282Z,98648.65
2018-07-03T08:12:23.627Z,98645.73
2018-07-03T08:14:50.984Z,98641.75
2018-07-03T08:17:18.992Z,98642.49
2018-07-03T08:19:46.358Z,98637.56
2018-07-03T08:22:13.623Z,98643.72
2018-07-03T08:24:40.950Z,98642.56
2018-07-03T08:27:08.258Z,98637.86
2018-07-03T08:29:35.483Z,98643.67
2018-07-03T08:32:02.911Z,98643.74
2018-07-03T08:34:30.220Z,98641.98
2018-07-03T08:36:57.574Z,98638.64
2018-07-03T08:39:24.839Z,98638.66
2018-07-03T08:41:52.258Z,98639.29
2018-07-03T08:44:19.552Z,98639.84
2018-07-03T08:46:46.886Z,98635.09
2018-07-03T08:49:14.137Z,98635.78
2018-07-03T08:51:41.486Z,98642.14
2018-07-03T08:54:08.743Z,98631.86
2018-07-03T08:56:36.007Z,98632.10
2018-07-03T08:59:03.305Z,98641.72
2018-07-03T09:01:30.685Z,98636.97
2018-07-03T09:03:57.952Z,98642.89
2018-07-03T09:06:25.241Z,98636.50
2018-07-03T09:08:52.537Z,98631.67
2018-07-03T09:11:19.832Z,98634.27
2018-07-03T09:13:47.650Z,98637.78
2018-07-03T09:16:14.964Z,98627.41
2018-07-03T09:18:42.183Z,98626.95
2018-07-03T09:21:09.443Z,98629.20
2018-07-03T09:23:36.718Z,98626.80
2018-07-03T09:26:04.026Z,98618.37
2018-07-03T09:28:31.312Z,98622.80
2018-07-03T09:30:58.546Z,98616.98
2018-07-03T09:33:25.824Z,98617.52
2018-07-03T09:35:53.076Z,98618.34
2018-07-03T09:38:20.517Z,98612.09
2018-07-03T09:40:47.764Z,98609.78
2018-07-03T09:43:15.124Z,98607.29
2018-07-03T09:45:42.453Z,98606.37
2018-07-03T09:48:09.911Z,98603.30
2018-07-03T09:50:37.165Z,98602.41
2018-07-03T09:53:04.428Z,98601.03
2018-07-03T09:55:31.731Z,98594.33
2018-07-03T09:57:58.981Z,98600.23
2018-07-03T10:00:32.040Z,98592.18
2018-07-03T10:02:59.309Z,98583.89
2018-07-03T10:05:26.621Z,98592.77
2018-07-03T10:07:54.094Z,98592.03
2018-07-03T10:10:21.350Z,98590.20
2018-07-03T10:12:48.709Z,98592.91
2018-07-03T10:15:16.008Z,98586.09
2018-07-03T10:17:43.273Z,98594.66
2018-07-03T10:20:10.523Z,98597.45
2018-07-03T10:22:37.818Z,98594.06
2018-07-03T10:25:05.158Z,98592.59
2018-07-03T10:27:35.333Z,98586.09
2018-07-03T10:30:02.620Z,98583.47
2018-07-03T10:32:29.899Z,98573.63
2018-07-03T10:34:57.218Z,98574.28
2018-07-03T10:37:24.460Z,98576.33
2018-07-03T10:39:51.725Z,98577.29
2018-07-03T10:42:18.995Z,98573.66
2018-07-03T10:44:46.266Z,98567.85
2018-07-03T10:47:13.496Z,98571.07
2018-07-03T10:49:42.220Z,98560.22
2018-07-03T10:52:10.397Z,98560.61
2018-07-03T10:54:39.439Z,98545.93
2018-07-03T10:57:08.279Z,98554.22
2018-07-03T10:59:37.453Z,98551.53
2018-07-03T11:02:07.669Z,98559.00
2018-07-03T11:04:35.408Z,98554.22
2018-07-03T11:07:04.256Z,98549.76
2018-07-03T11:09:32.951Z,98556.42
2018-07-03T11:12:00.230Z,98547.41
2018-07-03T11:14:27.767Z,98550.50
2018-07-03T11:16:55.010Z,98547.94
2018-07-03T11:19:22.299Z,98549.59
2018-07-03T11:21:49.597Z,98551.31
2018-07-03T11:24:17.323Z,98549.81
2018-07-03T11:26:44.619Z,98542.61
2018-07-03T11:29:11.859Z,98546.61
2018-07-03T11:31:39.194Z,98539.44
2018-07-03T11:34:06.457Z,98535.63
2018-07-03T11:36:33.719Z,98543.61
2018-07-03T11:39:00.997Z,98538.14
2018-07-03T11:41:28.255Z,98537.98
2018-07-03T11:43:55.506Z,98537.70
2018-07-03T11:46:22.772Z,98529.20
2018-07-03T11:48:50.047Z,98537.37
2018-07-03T11:51:17.355Z,98536.75
2018-07-03T11:53:44.617Z,98539.06
2018-07-03T11:56:11.874Z,98527.33
2018-07-03T11:58:39.289Z,98529.61
2018-07-03T12:01:06.675Z,98519.86
2018-07-03T12:03:39.716Z,98520.84
2018-07-03T12:06:07.116Z,98522.10
2018-07-03T12:08:34.369Z,98519.67
2018-07-03T12:11:01.694Z,98521.31
2018-07-03T12:13:29.590Z,98511.42
2018-07-03T12:15:56.866Z,98507.05
2018-07-03T12:18:29.754Z,98508.67
2018-07-03T12:20:57.273Z,98505.53
2018-07-03T12:23:24.859Z,98491.51
2018-07-03T12:25:52.149Z,98494.49
2018-07-03T12:28:19.418Z,98487.70
2018-07-03T12:30:46.700Z,98491.61
2018-07-03T12:33:13.954Z,98491.04
2018-07-03T12:35:41.227Z,98484.16
2018-07-03T12:38:08.523Z,98485.65
2018-07-03T12:40:35.810Z,98488.23
2018-07-03T12:43:03.560Z,98483.77
2018-07-03T12:45:30.860Z,98482.81
2018-07-03T12:47:58.108Z,98487.33
2018-07-03T12:50:25.371Z,98488.25
2018-07-03T12:52:52.579Z,98485.72
2018-07-03T12:55:19.866Z,98477.02
2018-07-03T12:57:47.128Z,98472.19
2018-07-03T13:00:14.392Z,98471.81
2018-07-03T13:02:41.661Z,98472.11
2018-07-03T13:05:09.006Z,98472.33
2018-07-03T13:07:36.344Z,98479.27
2018-07-03T13:10:03.706Z,98474.25
2018-07-03T13:12:30.979Z,98480.48
2018-07-03T13:14:58.221Z,98470.11
2018-07-03T13:17:25.458Z,98474.07
2018-07-03T13:19:52.684Z,98470.31
2018-07-03T13:22:19.942Z,98471.23
2018-07-03T13:24:47.191Z,98466.70
2018-07-03T13:27:14.487Z,98462.88
2018-07-03T13:29:41.755Z,98464.44
2018-07-03T13:32:09.010Z,98456.14
2018-07-03T13:34:36.256Z,98452.72
2018-07-03T13:37:03.539Z,98455.13
2018-07-03T13:39:30.771Z,98451.73
2018-07-03T13:41:58.053Z,98452.17
2018-07-03T13:44:25.474Z,98453.41
2018-07-03T13:46:52.719Z,98443.94
2018-07-03T13:49:19.969Z,98448.64
2018-07-03T13:51:47.723Z,98444.52
2018-07-03T13:54:15.028Z,98450.67
2018-07-03T13:56:42.909Z,98451.72
2018-07-03T13:59:10.846Z,98442.19
2018-07-03T14:01:38.270Z,98446.72
2018-07-03T14:04:05.696Z,98437.03
2018-07-03T14:06:32.975Z,98447.31
2018-07-03T14:09:00.329Z,98443.92
2018-07-03T14:11:28.342Z,98446.16
2018-07-03T14:13:56.625Z,98436.33
2018-07-03T14:16:24.469Z,98435.31
2018-07-03T14:18:52.495Z,98433.88
2018-07-03T14:21:20.359Z,98431.13
2018-07-03T14:23:48.062Z,98432.66
2018-07-03T14:26:16.130Z,98430.57
2018-07-03T14:28:43.790Z,98428.31
2018-07-03T14:31:11.496Z,98426.18
2018-07-03T14:33:39.127Z,98419.97
2018-07-03T14:36:07.568Z,98412.45
2018-07-03T14:38:35.131Z,98415.12
2018-07-03T14:41:02.741Z,98418.10
2018-07-03T14:43:30.176Z,98413.02
2018-07-03T14:45:57.964Z,98416.30
2018-07-03T14:48:25.962Z,98409.99
2018-07-03T14:50:54.051Z,98407.44
2018-07-03T14:53:21.431Z,98409.36
2018-07-03T14:55:48.844Z,98406.44
2018-07-03T14:58:16.093Z,98405.39
2018-07-03T15:00:43.330Z,98401.61
2018-07-03T15:03:10.586Z,98399.15
2018-07-03T15:05:38.559Z,98405.30
2018-07-03T15:08:05.807Z,98405.80
2018-07-03T15:10:34.189Z,98409.14
2018-07-03T15:13:03.062Z,98401.19
2018-07-03T15:15:30.306Z,98398.20
2018-07-03T15:18:04.475Z,98395.67
2018-07-03T15:20:31.752Z,98392.52
2018-07-03T15:22:59.022Z,98394.18
2018-07-03T15:25:26.511Z,98391.89
2018-07-03T15:27:53.896Z,98389.56
2018-07-03T15:30:21.165Z,98380.13
2018-07-03T15:32:48.834Z,98376.52
2018-07-03T15:35:16.143Z,98376.63
2018-07-03T15:37:43.551Z,98375.22
2018-07-03T15:40:11.336Z,98377.95
2018-07-03T15:42:38.608Z,98374.19
2018-07-03T15:45:10.351Z,98369.34
2018-07-03T15:47:37.619Z,98370.13
2018-07-03T15:50:05.677Z,98372.22
2018-07-03T15:52:32.953Z,98374.36
2018-07-03T15:55:00.207Z,98374.77
2018-07-03T15:57:27.422Z,98370.63
2018-07-03T15:59:54.822Z,98365.55
2018-07-03T16:02:22.167Z,98361.84
2018-07-03T16:05:03.248Z,98364.30
2018-07-03T16:07:45.112Z,98369.37
2018-07-03T16:10:12.382Z,98360.25
2018-07-03T16:12:39.642Z,98362.40
2018-07-03T16:15:07.306Z,98363.75
2018-07-03T16:17:34.526Z,98364.30
2018-07-03T16:20:07.612Z,98366.08
2018-07-03T16:22:34.900Z,98356.68
2018-07-03T16:25:02.283Z,98356.64
2018-07-03T16:27:29.597Z,98354.29
2018-07-03T16:29:56.966Z,98351.59
2018-07-03T16:32:24.314Z,98352.59
2018-07-03T16:34:51.554Z,98354.29
2018-07-03T16:37:18.974Z,98353.63
2018-07-03T16:39:46.220Z,98348.47
2018-07-03T16:42:15.087Z,98353.94
2018-07-03T16:44:43.944Z,98350.83
2018-07-03T16:47:11.364Z,98352.56
2018-07-03T16:49:38.606Z,98349.75
2018-07-03T16:52:06.114Z,98352.73
2018-07-03T16:54:33.368Z,98350.77
2018-07-03T16:57:00.649Z,98351.27
2018-07-03T16:59:28.185Z,98349.41
2018-07-03T17:01:55.920Z,98346.98
2018-07-03T17:04:24.400Z,98343.42
2018-07-03T17:06:52.372Z,98347.15
2018-07-03T17:09:19.776Z,98343.45
2018-07-03T17:11:47.042Z,98340.50
2018-07-03T17:14:14.351Z,98341.45
2018-07-03T17:16:41.654Z,98347.36
2018-07-03T17:19:14.699Z,98341.53
2018-07-03T17:21:42.044Z,98341.28
2018-07-03T17:24:09.345Z,98343.30
2018-07-03T17:26:36.817Z,98344.27
2018-07-03T17:29:04.393Z,98338.80
2018-07-03T17:31:32.394Z,98340.63
2018-07-03T17:33:59.811Z,98346.28
2018-07-03T17:36:27.079Z,98336.14
2018-07-03T17:38:54.404Z,98343.23
2018-07-03T17:41:33.059Z,98345.67
2018-07-03T17:44:13.090Z,98347.14
2018-07-03T17:46:40.384Z,98348.09
2018-07-03T17:49:08.507Z,98343.89
2018-07-03T17:51:43.995Z,98338.42
2018-07-03T17:54:20.779Z,98342.05
2018-07-03T17:57:04.333Z,98349.11
2018-07-03T17:59:39.800Z,98343.61
2018-07-03T18:02:10.778Z,98339.91
2018-07-03T18:04:53.861Z,98347.70
2018-07-03T18:07:22.055Z,98345.30
2018-07-03T18:09:59.061Z,98342.02
2018-07-03T18:12:29.171Z,98341.27
2018-07-03T18:14:57.052Z,98342.66
2018-07-03T18:17:25.744Z,98347.48
2018-07-03T18:19:53.248Z,98341.80
2018-07-03T18:22:26.189Z,98341.84
2018-07-03T18:24:57.653Z,98342.70
2018-07-03T18:27:28.677Z,98344.98
2018-07-03T18:29:56.887Z,98346.58
2018-07-03T18:32:26.043Z,98343.81
2018-07-03T18:34:54.361Z,98343.85
2018-07-03T18:37:23.967Z,98349.80
2018-07-03T18:39:55.280Z,98347.28
2018-07-03T18:42:23.092Z,98344.48
2018-07-03T18:44:54.959Z,98346.39
2018-07-03T18:47:24.313Z,98342.88
2018-07-03T18:49:52.377Z,98341.23
2018-07-03T18:52:23.213Z,98344.64
2018-07-03T18:54:53.029Z,98350.42
2018-07-03T18:57:24.166Z,98352.47
2018-07-03T18:59:56.175Z,98344.61
2018-07-03T19:02:27.752Z,98353.59
2018-07-03T19:05:15.170Z,98356.09
2018-07-03T19:07:48.700Z,98354.59
2018-07-03T19:10:19.150Z,98356.86
2018-07-03T19:12:56.697Z,98358.03
2018-07-03T19:15:28.609Z,98359.12
2018-07-03T19:17:57.990Z,98361.00
2018-07-03T19:20:27.501Z,98368.98
2018-07-03T19:22:58.269Z,98366.98
2018-07-03T19:25:32.540Z,98370.70
2018-07-03T19:30:43.705Z,98380.14
2018-07-03T19:33:16.786Z,98375.70
2018-07-03T19:35:49.549Z,98378.43
2018-07-03T19:38:18.618Z,98386.19
2018-07-03T19:40:48.990Z,98388.55
2018-07-03T19:43:20.935Z,98384.82
2018-07-03T19:45:50.886Z,98391.17
2018-07-03T19:48:25.096Z,98389.47
2018-07-03T19:50:56.068Z,98393.86
2018-07-03T19:53:27.941Z,98392.16
2018-07-03T19:56:00.528Z,98398.48
2018-07-03T19:58:33.212Z,98405.08
2018-07-03T20:01:02.797Z,98403.86
2018-07-03T20:03:30.871Z,98404.99
2018-07-03T20:05:58.412Z,98408.45
2018-07-03T20:08:26.919Z,98407.75
2018-07-03T20:10:54.223Z,98407.16
2018-07-03T20:13:21.838Z,98410.64
2018-07-03T20:15:51.218Z,98412.44
2018-07-03T20:18:18.799Z,98414.16
2018-07-03T20:20:46.265Z,98412.62
2018-07-03T20:23:13.598Z,98413.47
2018-07-03T20:25:40.945Z,98420.99
2018-07-03T20:28:10.129Z,98423.16
2018-07-03T20:30:37.734Z,98417.02
2018-07-03T20:33:05.286Z,98414.02
2018-07-03T20:35:32.703Z,98409.73
2018-07-03T20:38:01.278Z,98420.19
2018-07-03T20:40:40.270Z,98406.09
2018-07-03T20:43:08.825Z,98413.52
2018-07-03T20:45:36.674Z,98403.47
2018-07-03T20:48:04.182Z,98410.98
2018-07-03T20:50:31.800Z,98413.45
2018-07-03T20:52:59.350Z,98414.73
2018-07-03T20:55:27.967Z,98410.79
2018-07-03T20:57:55.368Z,98414.08
2018-07-03T21:00:22.635Z,98412.40
2018-07-03T21:02:49.930Z,98414.20
2018-07-03T21:05:17.851Z,98411.68
2018-07-03T21:07:45.166Z,98405.75
2018-07-03T21:10:12.454Z,98402.70
2018-07-03T21:12:39.986Z,98410.16
2018-07-03T21:15:08.292Z,98399.93
2018-07-03T21:17:35.564Z,98397.38
2018-07-03T21:20:02.971Z,98393.77
2018-07-03T21:22:30.870Z,98396.75
2018-07-03T21:24:58.197Z,98394.18
2018-07-03T21:27:25.562Z,98400.53
2018-07-03T21:29:53.596Z,98397.94
2018-07-03T21:32:20.981Z,98399.70
2018-07-03T21:34:48.300Z,98394.61
2018-07-03T21:37:15.640Z,98390.48
2018-07-03T21:39:42.970Z,98388.14
2018-07-03T21:42:10.279Z,98385.45
2018-07-03T21:44:38.245Z,98385.79
2018-07-03T21:47:05.563Z,98384.08
2018-07-03T21:49:32.916Z,98385.17
2018-07-03T21:52:00.194Z,98373.53
2018-07-03T21:54:28.010Z,98380.09
2018-07-03T21:56:55.279Z,98377.57
2018-07-03T21:59:22.572Z,98378.66
2018-07-03T22:01:49.883Z,98379.72
2018-07-03T22:04:17.203Z,98387.42
2018-07-03T22:06:44.519Z,98393.44
2018-07-03T22:09:12.970Z,98396.59
2018-07-03T22:11:40.356Z,98399.63
2018-07-03T22:14:07.644Z,98403.14
2018-07-03T22:16:34.927Z,98398.54
2018-07-03T22:19:02.404Z,98398.00
2018-07-03T22:21:29.656Z,98402.15
2018-07-03T22:23:56.975Z,98405.36
2018-07-03T22:26:24.299Z,98407.41
2018-07-03T22:28:51.988Z,98407.47
2018-07-03T22:31:19.294Z,98404.17
2018-07-03T22:33:46.698Z,98419.47
2018-07-03T22:36:14.175Z,98419.62
2018-07-03T22:38:41.598Z,98421.81
2018-07-03T22:41:08.887Z,98419.97
2018-07-03T22:43:36.967Z,98426.84
2018-07-03T22:46:04.573Z,98420.20
2018-07-03T22:48:31.850Z,98421.69
2018-07-03T22:50:59.192Z,98421.58
2018-07-03T22:53:26.524Z,98418.77
2018-07-03T22:55:53.834Z,98415.69
2018-07-03T22:58:21.214Z,98418.48
2018-07-03T23:00:48.595Z,98413.77
2018-07-03T23:03:15.903Z,98417.17
2018-07-03T23:05:43.739Z,98423.27
2018-07-03T23:08:11.015Z,98420.08
2018-07-03T23:10:38.347Z,98415.73
2018-07-03T23:13:05.783Z,98417.98
2018-07-03T23:15:33.570Z,98414.30
2018-07-03T23:18:02.301Z,98416.84
2018-07-03T23:20:29.617Z,98420.05
2018-07-03T23:22:56.895Z,98416.42
2018-07-03T23:25:24.137Z,98419.08
2018-07-03T23:27:51.415Z,98417.80
2018-07-03T23:30:18.672Z,98415.07
2018-07-03T23:32:46.022Z,98416.89
2018-07-03T23:35:13.310Z,98412.91
2018-07-03T23:37:40.618Z,98410.88
2018-07-03T23:40:07.934Z,98413.45
2018-07-03T23:42:35.235Z,98412.13
2018-07-03T23:45:02.615Z,98413.28
2018-07-03T23:47:41.160Z,98416.11
2018-07-03T23:50:19.878Z,98409.36
2018-07-03T23:52:58.512Z,98409.95
2018-07-03T23:55:38.455Z,98409.38
2018-07-03T23:58:17.254Z,98406.80
